createdAt,value
2023-01-17T00:01:36.272Z,99764.63
2023-01-17T00:04:28.754Z,99763.66
2023-01-17T00:07:28.790Z,99764.31
2023-01-17T00:10:12.738Z,99771.44
2023-01-17T00:12:55.112Z,99760.50
2023-01-17T00:15:32.947Z,99740.56
2023-01-17T00:18:07.438Z,99741.91
2023-01-17T00:21:03.190Z,99736.41
2023-01-17T00:23:56.440Z,99741.16
2023-01-17T00:26:31.812Z,99748.28
2023-01-17T00:29:08.475Z,99745.53
2023-01-17T00:31:44.293Z,99751.53
2023-01-17T00:34:15.198Z,99750.72
2023-01-17T00:36:44.412Z,99748.22
2023-01-17T00:39:18.895Z,99757.56
2023-01-17T00:41:51.934Z,99756.56
2023-01-17T00:44:40.576Z,99751.78
2023-01-17T00:47:31.982Z,99757.91
2023-01-17T00:50:31.292Z,99756.91
2023-01-17T00:53:25.080Z,99758.06
2023-01-17T00:56:34.245Z,99754.91
2023-01-17T00:59:32.311Z,99762.72
2023-01-17T01:02:30.292Z,99755.56
2023-01-17T01:05:19.953Z,99752.56
2023-01-17T01:08:11.421Z,99754.06
2023-01-17T01:11:11.979Z,99754.91
2023-01-17T01:14:03.821Z,99754.41
2023-01-17T01:16:54.356Z,99747.56
2023-01-17T01:19:51.539Z,99744.94
2023-01-17T01:22:48.294Z,99750.03
2023-01-17T01:25:39.758Z,99746.00
2023-01-17T01:28:42.359Z,99745.00
2023-01-17T01:31:33.005Z,99740.53
2023-01-17T01:34:07.340Z,99743.66
2023-01-17T01:36:36.356Z,99738.69
2023-01-17T01:39:08.252Z,99731.03
2023-01-17T01:41:41.787Z,99737.44
2023-01-17T01:45:33.740Z,99739.34
2023-01-17T01:48:56.686Z,99736.75
2023-01-17T01:52:02.635Z,99733.41
2023-01-17T01:54:48.365Z,99731.22
2023-01-17T01:57:24.432Z,99738.09
2023-01-17T02:00:09.045Z,99733.97
2023-01-17T02:02:44.702Z,99727.97
2023-01-17T02:05:23.949Z,99721.09
2023-01-17T02:08:02.462Z,99722.09
2023-01-17T02:10:40.033Z,99734.41
2023-01-17T02:13:12.074Z,99734.09
2023-01-17T02:16:15.465Z,99734.19
2023-01-17T02:19:10.231Z,99739.81
2023-01-17T02:22:30.253Z,99746.13
2023-01-17T02:25:10.559Z,99744.09
2023-01-17T02:28:00.393Z,99742.56
2023-01-17T02:30:48.244Z,99724.22
2023-01-17T02:33:38.035Z,99714.59
2023-01-17T02:36:24.026Z,99721.28
2023-01-17T02:39:23.518Z,99729.44
2023-01-17T02:42:06.590Z,99730.63
2023-01-17T02:44:46.513Z,99732.06
2023-01-17T02:47:39.589Z,99737.03
2023-01-17T02:50:20.871Z,99727.34
2023-01-17T02:53:05.225Z,99723.50
2023-01-17T02:55:59.699Z,99720.63
2023-01-17T02:58:56.201Z,99719.81
2023-01-17T03:02:26.077Z,99715.84
2023-01-17T03:05:10.267Z,99708.91
2023-01-17T03:07:45.162Z,99716.75
2023-01-17T03:10:20.244Z,99720.75
2023-01-17T03:12:59.323Z,99721.47
2023-01-17T03:15:30.449Z,99728.13
2023-01-17T03:18:07.076Z,99726.94
2023-01-17T03:20:36.485Z,99726.13
2023-01-17T03:23:06.643Z,99723.75
2023-01-17T03:25:44.059Z,99716.81
2023-01-17T03:28:15.304Z,99705.69
2023-01-17T03:30:44.300Z,99698.47
2023-01-17T03:33:22.397Z,99698.19
2023-01-17T03:35:51.365Z,99692.22
2023-01-17T03:38:23.439Z,99696.00
2023-01-17T03:40:59.212Z,99699.81
2023-01-17T03:43:38.406Z,99699.81
2023-01-17T03:46:22.609Z,99706.63
2023-01-17T03:48:57.998Z,99714.41
2023-01-17T03:51:31.601Z,99706.16
2023-01-17T03:54:02.466Z,99700.63
2023-01-17T03:56:35.491Z,99700.63
2023-01-17T03:59:12.978Z,99697.63
2023-01-17T04:01:48.464Z,99690.34
2023-01-17T04:04:18.248Z,99677.31
2023-01-17T04:06:50.929Z,99678.25
2023-01-17T04:09:22.648Z,99670.06
2023-01-17T04:11:54.169Z,99676.94
2023-01-17T04:14:24.083Z,99660.91
2023-01-17T04:17:00.218Z,99659.09
2023-01-17T04:19:38.292Z,99662.78
2023-01-17T04:22:11.666Z,99660.53
2023-01-17T04:24:40.324Z,99660.28
2023-01-17T04:27:19.595Z,99661.13
2023-01-17T04:29:51.548Z,99662.59
2023-01-17T04:32:22.974Z,99657.28
2023-01-17T04:34:52.591Z,99660.09
2023-01-17T04:37:24.750Z,99645.72
2023-01-17T04:40:07.872Z,99627.78
2023-01-17T04:42:36.696Z,99629.16
2023-01-17T04:45:10.806Z,99628.78
2023-01-17T04:47:40.876Z,99630.75
2023-01-17T04:50:12.429Z,99626.28
2023-01-17T04:52:43.557Z,99622.34
2023-01-17T04:55:19.964Z,99622.88
2023-01-17T04:57:50.586Z,99623.03
2023-01-17T05:00:24.400Z,99630.31
2023-01-17T05:03:00.269Z,99621.50
2023-01-17T05:05:38.628Z,99606.78
2023-01-17T05:08:09.019Z,99601.03
2023-01-17T05:10:50.006Z,99589.84
2023-01-17T05:13:23.245Z,99594.44
2023-01-17T05:15:55.094Z,99598.38
2023-01-17T05:18:26.936Z,99593.91
2023-01-17T05:21:06.872Z,99584.94
2023-01-17T05:23:36.553Z,99584.94
2023-01-17T05:26:10.721Z,99588.25
2023-01-17T05:28:41.157Z,99589.16
2023-01-17T05:31:11.928Z,99574.56
2023-01-17T05:33:41.171Z,99570.25
2023-01-17T05:36:12.618Z,99574.41
2023-01-17T05:38:42.747Z,99574.81
2023-01-17T05:41:14.235Z,99567.69
2023-01-17T05:43:44.331Z,99557.09
2023-01-17T05:46:19.739Z,99548.19
2023-01-17T05:48:51.916Z,99549.53
2023-01-17T05:51:21.113Z,99539.09
2023-01-17T05:53:54.561Z,99528.09
2023-01-17T05:56:30.471Z,99519.03
2023-01-17T05:59:06.767Z,99509.81
2023-01-17T06:01:36.336Z,99505.78
2023-01-17T06:04:08.476Z,99510.31
2023-01-17T06:06:57.225Z,99502.91
2023-01-17T06:09:42.848Z,99509.38
2023-01-17T06:12:16.756Z,99494.50
2023-01-17T06:14:56.104Z,99497.91
2023-01-17T06:17:31.433Z,99507.19
2023-01-17T06:20:03.807Z,99487.97
2023-01-17T06:22:38.681Z,99469.44
2023-01-17T06:25:08.571Z,99490.13
2023-01-17T06:27:40.136Z,99488.97
2023-01-17T06:30:18.243Z,99490.31
2023-01-17T06:32:59.944Z,99501.09
2023-01-17T06:35:31.787Z,99505.09
2023-01-17T06:38:06.787Z,99503.75
2023-01-17T06:40:36.594Z,99500.25
2023-01-17T06:43:11.418Z,99502.72
2023-01-17T06:45:44.593Z,99490.63
2023-01-17T06:48:15.673Z,99493.56
2023-01-17T06:50:48.829Z,99487.53
2023-01-17T06:53:22.588Z,99498.50
2023-01-17T06:55:54.441Z,99502.44
2023-01-17T06:58:27.191Z,99501.84
2023-01-17T07:01:02.184Z,99500.44
2023-01-17T07:03:33.582Z,99496.47
2023-01-17T07:06:08.549Z,99492.84
2023-01-17T07:08:39.536Z,99490.03
2023-01-17T07:11:10.976Z,99496.53
2023-01-17T07:13:43.653Z,99497.44
2023-01-17T07:16:13.025Z,99499.75
2023-01-17T07:18:43.570Z,99508.88
2023-01-17T07:21:17.095Z,99502.63
2023-01-17T07:23:48.207Z,99516.06
2023-01-17T07:26:18.762Z,99503.84
2023-01-17T07:28:50.753Z,99496.28
2023-01-17T07:31:21.299Z,99492.09
2023-01-17T07:33:52.724Z,99482.78
2023-01-17T07:36:27.876Z,99481.94
2023-01-17T07:39:05.436Z,99490.84
2023-01-17T07:41:42.912Z,99495.19
2023-01-17T07:44:37.200Z,99492.25
2023-01-17T07:48:31.654Z,99485.66
2023-01-17T07:51:14.663Z,99482.78
2023-01-17T07:53:47.599Z,99474.25
2023-01-17T07:56:21.364Z,99468.44
2023-01-17T07:58:55.032Z,99450.41
2023-01-17T08:01:26.782Z,99447.09
2023-01-17T08:04:15.850Z,99437.16
2023-01-17T08:06:50.364Z,99434.50
2023-01-17T08:09:32.113Z,99434.38
2023-01-17T08:12:11.364Z,99433.06
2023-01-17T08:15:08.680Z,99435.44
2023-01-17T08:17:46.668Z,99437.75
2023-01-17T08:20:19.148Z,99441.56
2023-01-17T08:23:04.810Z,99430.00
2023-01-17T08:25:44.147Z,99426.16
2023-01-17T08:28:23.960Z,99416.25
2023-01-17T08:30:55.065Z,99409.44
2023-01-17T08:33:31.576Z,99398.81
2023-01-17T08:36:06.842Z,99409.44
2023-01-17T08:38:39.600Z,99392.34
2023-01-17T08:41:11.049Z,99392.34
2023-01-17T08:43:48.873Z,99386.94
2023-01-17T08:46:23.376Z,99379.66
2023-01-17T08:49:15.892Z,99379.19
2023-01-17T08:51:47.421Z,99367.59
2023-01-17T08:57:12.868Z,99373.28
2023-01-17T08:59:51.130Z,99372.47
2023-01-17T09:02:21.332Z,99380.19
2023-01-17T09:05:08.897Z,99376.28
2023-01-17T09:07:50.958Z,99367.84
2023-01-17T09:10:20.690Z,99370.13
2023-01-17T09:12:52.350Z,99362.84
2023-01-17T09:15:24.302Z,99360.31
2023-01-17T09:18:11.343Z,99355.69
2023-01-17T09:20:42.882Z,99361.81
2023-01-17T09:23:12.647Z,99360.50
2023-01-17T09:25:52.364Z,99369.28
2023-01-17T09:28:22.976Z,99372.13
2023-01-17T09:30:56.636Z,99366.66
2023-01-17T09:33:41.254Z,99364.84
2023-01-17T09:36:16.235Z,99357.88
2023-01-17T09:38:50.940Z,99342.63
2023-01-17T09:41:24.210Z,99339.47
2023-01-17T09:44:16.778Z,99340.16
2023-01-17T09:46:50.979Z,99318.44
2023-01-17T09:49:51.322Z,99316.28
2023-01-17T09:52:28.529Z,99317.94
2023-01-17T09:55:18.907Z,99317.94
2023-01-17T09:58:15.206Z,99320.59
2023-01-17T10:01:11.438Z,99318.28
2023-01-17T10:04:09.218Z,99314.25
2023-01-17T10:07:06.974Z,99318.06
2023-01-17T10:10:08.647Z,99314.63
2023-01-17T10:12:48.110Z,99307.81
2023-01-17T10:16:08.395Z,99316.25
2023-01-17T10:19:04.761Z,99317.25
2023-01-17T10:22:12.776Z,99304.16
2023-01-17T10:25:48.915Z,99299.97
2023-01-17T10:28:52.639Z,99299.97
2023-01-17T10:31:38.331Z,99305.47
2023-01-17T10:34:26.324Z,99314.59
2023-01-17T10:37:26.594Z,99303.75
2023-01-17T10:40:26.713Z,99310.59
2023-01-17T10:43:32.728Z,99304.06
2023-01-17T10:46:05.219Z,99310.22
2023-01-17T10:48:50.986Z,99316.06
2023-01-17T10:52:04.777Z,99321.34
2023-01-17T10:55:12.888Z,99324.25
2023-01-17T10:57:53.569Z,99327.28
2023-01-17T11:00:52.674Z,99329.47
2023-01-17T11:03:22.805Z,99339.06
2023-01-17T11:06:20.544Z,99343.03
2023-01-17T11:09:01.395Z,99347.84
2023-01-17T11:11:35.089Z,99360.91
2023-01-17T11:14:20.632Z,99360.44
2023-01-17T11:17:13.139Z,99365.19
2023-01-17T11:19:54.811Z,99374.34
2023-01-17T11:22:32.160Z,99367.19
2023-01-17T11:25:08.661Z,99362.25
2023-01-17T11:27:46.865Z,99374.34
2023-01-17T11:30:23.546Z,99377.00
2023-01-17T11:33:11.305Z,99373.00
2023-01-17T11:35:49.013Z,99375.81
2023-01-17T11:38:26.751Z,99370.00
2023-01-17T11:41:31.545Z,99369.50
2023-01-17T11:44:20.948Z,99359.19
2023-01-17T11:47:10.985Z,99352.34
2023-01-17T11:49:49.301Z,99347.50
2023-01-17T11:52:34.710Z,99357.84
2023-01-17T11:55:09.285Z,99352.72
2023-01-17T11:57:38.732Z,99349.38
2023-01-17T12:00:31.241Z,99344.69
2023-01-17T12:03:18.842Z,99330.94
2023-01-17T12:06:14.519Z,99328.69
2023-01-17T12:09:06.567Z,99333.00
2023-01-17T12:12:40.593Z,99325.09
2023-01-17T12:15:52.624Z,99315.06
2023-01-17T12:18:42.400Z,99323.44
2023-01-17T12:21:32.988Z,99323.16
2023-01-17T12:24:36.641Z,99311.25
2023-01-17T12:27:34.568Z,99310.91
2023-01-17T12:30:32.307Z,99318.81
2023-01-17T12:33:15.812Z,99307.88
2023-01-17T12:35:54.495Z,99300.69
2023-01-17T12:38:43.045Z,99279.41
2023-01-17T12:41:35.500Z,99282.22
2023-01-17T12:44:09.156Z,99279.56
2023-01-17T12:46:52.755Z,99276.38
2023-01-17T12:50:15.879Z,99281.94
2023-01-17T12:53:20.692Z,99287.44
2023-01-17T12:56:03.212Z,99298.25
2023-01-17T12:59:07.097Z,99306.75
2023-01-17T13:01:43.049Z,99313.19
2023-01-17T13:04:57.748Z,99315.06
2023-01-17T13:07:38.502Z,99328.72
2023-01-17T13:10:24.421Z,99324.00
2023-01-17T13:13:25.103Z,99318.88
2023-01-17T13:16:37.232Z,99304.97
2023-01-17T13:19:31.984Z,99289.81
2023-01-17T13:22:21.622Z,99274.22
2023-01-17T13:25:38.963Z,99269.78
2023-01-17T13:28:53.589Z,99277.75
2023-01-17T13:32:00.200Z,99280.72
2023-01-17T13:35:20.959Z,99279.66
2023-01-17T13:38:23.396Z,99272.31
2023-01-17T13:41:43.623Z,99282.94
2023-01-17T13:44:48.184Z,99293.47
2023-01-17T13:47:24.362Z,99293.28
2023-01-17T13:50:47.700Z,99283.84
2023-01-17T13:53:47.862Z,99280.03
2023-01-17T13:56:40.396Z,99280.31
2023-01-17T14:00:11.948Z,99290.59
2023-01-17T14:03:53.187Z,99288.13
2023-01-17T14:06:48.073Z,99282.53
2023-01-17T14:09:49.432Z,99266.72
2023-01-17T14:12:21.092Z,99285.19
2023-01-17T14:15:15.268Z,99300.50
2023-01-17T14:17:54.509Z,99315.94
2023-01-17T14:20:44.954Z,99317.50
2023-01-17T14:23:25.103Z,99321.09
2023-01-17T14:26:36.695Z,99310.94
2023-01-17T14:29:45.060Z,99317.34
2023-01-17T14:32:40.177Z,99310.38
2023-01-17T14:35:35.055Z,99302.91
2023-01-17T14:41:57.014Z,99301.94
2023-01-17T14:44:44.020Z,99300.38
2023-01-17T14:47:20.905Z,99295.44
2023-01-17T14:50:21.498Z,99277.94
2023-01-17T14:53:32.394Z,99277.94
2023-01-17T14:56:20.338Z,99269.50
2023-01-17T14:59:19.011Z,99270.28
2023-01-17T15:02:08.369Z,99268.59
2023-01-17T15:04:45.975Z,99282.28
2023-01-17T15:07:21.456Z,99288.72
2023-01-17T15:09:56.678Z,99287.50
2023-01-17T15:12:49.318Z,99295.22
2023-01-17T15:15:46.559Z,99293.22
2023-01-17T15:18:48.629Z,99290.41
2023-01-17T15:22:05.403Z,99278.34
2023-01-17T15:25:48.010Z,99269.25
2023-01-17T15:28:44.208Z,99260.53
2023-01-17T15:31:43.449Z,99257.72
2023-01-17T15:35:17.561Z,99263.38
2023-01-17T15:38:49.017Z,99264.38
2023-01-17T15:41:44.466Z,99258.41
2023-01-17T15:44:48.927Z,99245.28
2023-01-17T15:47:51.847Z,99237.84
2023-01-17T15:51:47.890Z,99243.47
2023-01-17T15:55:39.678Z,99245.28
2023-01-17T16:02:46.226Z,99241.69
2023-01-17T16:05:38.664Z,99233.34
2023-01-17T16:19:16.695Z,99168.53
2023-01-17T16:29:32.630Z,99151.91
2023-01-17T16:33:19.334Z,99159.09
2023-01-17T16:36:40.711Z,99143.28
2023-01-17T16:39:58.367Z,99125.41
2023-01-17T16:43:26.581Z,99121.88
2023-01-17T16:47:32.351Z,99147.81
2023-01-17T16:50:19.543Z,99139.97
2023-01-17T16:53:21.521Z,99139.81
2023-01-17T17:26:44.365Z,99040.22
2023-01-17T17:30:32.038Z,99032.16
2023-01-17T17:47:49.348Z,98999.44
2023-01-17T17:55:45.095Z,98985.00
2023-01-17T17:58:21.775Z,98965.91
2023-01-17T18:01:10.388Z,98966.94
2023-01-17T18:04:24.104Z,98963.91
2023-01-17T18:07:21.293Z,98960.47
2023-01-17T18:09:52.915Z,98962.16
2023-01-17T18:12:36.277Z,98962.41
2023-01-17T18:15:13.417Z,98953.41
2023-01-17T18:18:35.473Z,98943.56
2023-01-17T18:21:27.239Z,98953.50
2023-01-17T18:24:27.686Z,98952.53
2023-01-17T18:27:16.930Z,98951.25
2023-01-17T18:31:17.309Z,98941.72
2023-01-17T18:37:04.913Z,98942.75
2023-01-17T18:39:56.271Z,98937.50
2023-01-17T18:43:15.463Z,98929.34
2023-01-17T18:46:13.180Z,98921.16
2023-01-17T18:49:08.895Z,98927.09
2023-01-17T18:51:49.081Z,98927.72
2023-01-17T18:54:21.160Z,98916.75
2023-01-17T18:57:09.061Z,98938.41
2023-01-17T18:59:48.889Z,98925.50
2023-01-17T19:02:24.793Z,98932.38
2023-01-17T19:05:17.028Z,98934.81
2023-01-17T19:07:55.383Z,98943.75
2023-01-17T19:10:35.855Z,98945.13
2023-01-17T19:13:21.569Z,98947.53
2023-01-17T19:16:03.348Z,98936.44
2023-01-17T19:23:47.557Z,98933.06
2023-01-17T19:26:25.181Z,98927.09
2023-01-17T19:29:08.955Z,98926.53
2023-01-17T19:31:48.509Z,98913.72
2023-01-17T19:34:20.486Z,98909.00
2023-01-17T19:36:56.217Z,98894.53
2023-01-17T19:39:32.142Z,98891.03
2023-01-17T19:42:20.717Z,98895.03
2023-01-17T19:44:56.679Z,98898.31
2023-01-17T19:47:39.749Z,98905.38
2023-01-17T19:50:15.985Z,98911.59
2023-01-17T19:52:46.064Z,98918.53
2023-01-17T19:55:19.373Z,98914.78
2023-01-17T19:58:05.995Z,98919.56
2023-01-17T20:00:49.510Z,98932.19
2023-01-17T20:03:41.383Z,98929.41
2023-01-17T20:06:18.563Z,98922.97
2023-01-17T20:09:08.216Z,98925.31
2023-01-17T20:12:16.472Z,98927.97
2023-01-17T20:14:48.967Z,98924.09
2023-01-17T20:17:23.120Z,98922.78
2023-01-17T20:19:55.901Z,98921.16
2023-01-17T20:22:26.079Z,98909.00
2023-01-17T20:25:03.561Z,98913.47
2023-01-17T20:27:36.409Z,98911.06
2023-01-17T20:30:20.258Z,98909.09
2023-01-17T20:32:56.362Z,98913.91
2023-01-17T20:35:37.513Z,98915.13
2023-01-17T20:38:15.324Z,98922.88
2023-01-17T20:40:45.158Z,98927.19
2023-01-17T20:43:17.439Z,98934.53
2023-01-17T20:45:56.878Z,98937.06
2023-01-17T20:48:35.386Z,98928.81
2023-01-17T20:51:13.230Z,98930.13
2023-01-17T20:53:45.669Z,98914.56
2023-01-17T20:56:18.594Z,98919.69
2023-01-17T20:58:49.561Z,98911.78
2023-01-17T21:01:25.031Z,98919.03
2023-01-17T21:04:05.306Z,98918.47
2023-01-17T21:06:47.829Z,98920.19
2023-01-17T21:09:40.868Z,98920.97
2023-01-17T21:13:17.993Z,98925.72
2023-01-17T21:16:15.900Z,98937.41
2023-01-17T21:18:48.730Z,98936.66
2023-01-17T21:21:24.270Z,98934.59
2023-01-17T21:24:01.972Z,98943.03
2023-01-17T21:26:40.316Z,98934.13
2023-01-17T21:29:13.893Z,98929.81
2023-01-17T21:31:48.673Z,98933.19
2023-01-17T21:34:25.384Z,98926.06
2023-01-17T21:37:09.845Z,98919.31
2023-01-17T21:39:43.267Z,98928.59
2023-01-17T21:42:14.794Z,98929.09
2023-01-17T21:44:47.632Z,98930.06
2023-01-17T21:47:19.427Z,98938.59
2023-01-17T21:49:48.904Z,98942.28
2023-01-17T21:52:20.889Z,98945.69
2023-01-17T21:55:09.508Z,98950.16
2023-01-17T21:58:04.944Z,98958.97
2023-01-17T22:00:42.964Z,98958.09
2023-01-17T22:03:15.045Z,98960.28
2023-01-17T22:05:44.966Z,98953.78
2023-01-17T22:08:19.072Z,98949.06
2023-01-17T22:10:49.016Z,98954.09
2023-01-17T22:13:21.141Z,98950.22
2023-01-17T22:16:03.277Z,98936.69
2023-01-17T22:18:38.799Z,98941.59
2023-01-17T22:21:15.447Z,98942.19
2023-01-17T22:23:54.313Z,98946.47
2023-01-17T22:26:28.993Z,98944.97
2023-01-17T22:29:07.877Z,98949.88
2023-01-17T22:31:38.183Z,98951.28
2023-01-17T22:34:12.151Z,98955.22
2023-01-17T22:36:43.721Z,98959.88
2023-01-17T22:39:16.013Z,98956.91
2023-01-17T22:41:45.953Z,98970.53
2023-01-17T22:44:19.080Z,98973.66
2023-01-17T22:46:49.599Z,98974.59
2023-01-17T22:49:25.693Z,98981.94
2023-01-17T22:52:00.258Z,98977.72
2023-01-17T22:54:43.605Z,98976.22
2023-01-17T22:57:15.678Z,98976.91
2023-01-17T22:59:47.686Z,98986.47
2023-01-17T23:02:20.378Z,98985.47
2023-01-17T23:04:49.755Z,98990.03
2023-01-17T23:07:25.294Z,98997.72
2023-01-17T23:10:03.591Z,98990.03
2023-01-17T23:12:36.158Z,98992.56
2023-01-17T23:15:24.575Z,98998.28
2023-01-17T23:18:21.503Z,99003.44
2023-01-17T23:20:55.402Z,99018.09
2023-01-17T23:23:25.166Z,99018.50
2023-01-17T23:26:03.032Z,99036.44
2023-01-17T23:28:34.319Z,99033.53
2023-01-17T23:31:08.156Z,99045.50
2023-01-17T23:33:37.542Z,99048.75
2023-01-17T23:36:11.315Z,99047.34
2023-01-17T23:38:44.817Z,99033.16
2023-01-17T23:41:34.672Z,99032.88
2023-01-17T23:44:04.998Z,99041.59
2023-01-17T23:46:36.352Z,99038.75
2023-01-17T23:49:08.699Z,99032.97
